Time;durP1;ratioP1;P1;durP2;ratioP2;P2;SDS_P1;SDS_P2;PMS_P1;PMS_P2;Temp;Humidity;BMP_temperature;BMP_pressure;BME280_temperature;BME280_humidity;BME280_pressure;Samples;Min_cycle;Max_cycle;Signal;HPM_P1;HPM_P2
2023/11/19 00:01:49;;;;;;;13.53;7.63;;;;;;;;;;5001112;28;20034;-70
2023/11/19 00:04:14;;;;;;;13.57;6.90;;;;;;;;;;5007273;28;20370;-71
2023/11/19 00:06:40;;;;;;;14.87;7.20;;;;;;;;;;5009524;28;20030;-69
2023/11/19 00:09:07;;;;;;;10.90;7.07;;;;;;;;;;5008793;28;20104;-70
2023/11/19 00:11:33;;;;;;;10.83;6.57;;;;;;;;;;5011593;28;20038;-71
2023/11/19 00:13:58;;;;;;;11.90;6.53;;;;;;;;;;5011881;28;20036;-70
2023/11/19 00:16:24;;;;;;;11.27;6.73;;;;;;;;;;5013234;28;20053;-69
2023/11/19 00:18:49;;;;;;;14.03;6.77;;;;;;;;;;4996519;28;20113;-70
2023/11/19 00:21:15;;;;;;;13.13;6.73;;;;;;;;;;4993314;28;20370;-71
2023/11/19 00:23:41;;;;;;;12.40;6.73;;;;;;;;;;4992175;28;20117;-69
2023/11/19 00:26:06;;;;;;;12.90;6.90;;;;;;;;;;4992212;28;20371;-69
2023/11/19 00:28:37;;;;;;;13.80;6.90;;;;;;;;;;4993706;28;20042;-70
2023/11/19 00:31:04;;;;;;;12.00;6.97;;;;;;;;;;4992237;28;20080;-69
2023/11/19 00:33:31;;;;;;;9.90;6.03;;;;;;;;;;5010827;28;20034;-69
2023/11/19 00:35:56;;;;;;;14.20;6.57;;;;;;;;;;5011401;28;20135;-70
2023/11/19 00:38:22;;;;;;;12.37;7.43;;;;;;;;;;5012943;28;20498;-68
2023/11/19 00:40:47;;;;;;;13.03;7.37;;;;;;;;;;5011456;28;20033;-70
2023/11/19 00:43:13;;;;;;;13.83;7.20;;;;;;;;;;5011961;28;20018;-68
2023/11/19 00:45:38;;;;;;;12.73;7.70;;;;;;;;;;5012237;28;20408;-71
2023/11/19 00:48:04;;;;;;;15.53;8.27;;;;;;;;;;4996837;28;20029;-70
2023/11/19 00:50:31;;;;;;;10.90;6.70;;;;;;;;;;5012355;28;20102;-70
2023/11/19 00:52:56;;;;;;;11.80;7.47;;;;;;;;;;5013439;28;20088;-70
2023/11/19 00:55:22;;;;;;;16.37;7.67;;;;;;;;;;5011158;28;20716;-70
2023/11/19 00:57:47;;;;;;;13.73;6.60;;;;;;;;;;5012788;28;20038;-69
2023/11/19 01:00:23;;;;;;;11.27;6.47;;;;;;;;;;5010933;28;20115;-70
2023/11/19 01:02:49;;;;;;;11.57;7.30;;;;;;;;;;4991818;28;20740;-69
2023/11/19 01:05:21;;;;;;;10.10;6.30;;;;;;;;;;4992032;28;20134;-69
2023/11/19 01:07:47;;;;;;;9.10;5.68;;;;;;;;;;4992483;28;20043;-71
2023/11/19 01:10:12;;;;;;;16.10;6.43;;;;;;;;;;4991130;28;20033;-70
2023/11/19 01:12:38;;;;;;;9.90;5.63;;;;;;;;;;4992307;28;20105;-70
2023/11/19 01:15:05;;;;;;;11.13;6.03;;;;;;;;;;4993091;28;20057;-70
2023/11/19 01:17:31;;;;;;;13.63;6.73;;;;;;;;;;4991218;28;20478;-69
2023/11/19 01:19:58;;;;;;;10.40;6.27;;;;;;;;;;4991151;28;20125;-70
2023/11/19 01:22:23;;;;;;;12.03;6.37;;;;;;;;;;4991947;28;20113;-69
2023/11/19 01:24:49;;;;;;;12.47;6.80;;;;;;;;;;4992597;28;20105;-71
2023/11/19 01:27:15;;;;;;;11.63;7.20;;;;;;;;;;4990917;28;20522;-70
2023/11/19 01:29:42;;;;;;;12.67;7.23;;;;;;;;;;5005601;28;20048;-70
2023/11/19 01:32:08;;;;;;;11.93;6.50;;;;;;;;;;5010745;28;20030;-69
2023/11/19 01:34:33;;;;;;;11.20;6.63;;;;;;;;;;5011719;28;20364;-73
2023/11/19 01:36:59;;;;;;;11.33;6.57;;;;;;;;;;5012194;28;20041;-76
2023/11/19 01:39:24;;;;;;;14.73;6.37;;;;;;;;;;5010575;28;20022;-73
2023/11/19 01:41:50;;;;;;;11.33;6.90;;;;;;;;;;5012079;28;20026;-74
2023/11/19 01:44:16;;;;;;;10.50;6.07;;;;;;;;;;4994320;28;20054;-75
2023/11/19 01:46:47;;;;;;;10.47;6.53;;;;;;;;;;5007134;28;20022;-72
2023/11/19 01:49:15;;;;;;;7.15;5.20;;;;;;;;;;4992443;28;20072;-74
2023/11/19 01:51:41;;;;;;;11.67;5.90;;;;;;;;;;4992224;28;20030;-74
2023/11/19 01:54:08;;;;;;;13.57;6.97;;;;;;;;;;4995831;28;20022;-74
2023/11/19 01:56:34;;;;;;;9.73;6.23;;;;;;;;;;4991628;28;20037;-73
2023/11/19 01:59:00;;;;;;;13.37;6.07;;;;;;;;;;5030442;28;20454;-74
2023/11/19 02:01:26;;;;;;;12.83;6.43;;;;;;;;;;5011070;28;20018;-74
2023/11/19 02:03:52;;;;;;;12.03;6.90;;;;;;;;;;4998860;28;20015;-73
2023/11/19 02:06:17;;;;;;;9.47;6.23;;;;;;;;;;4991607;28;20501;-74
2023/11/19 02:08:43;;;;;;;9.13;5.70;;;;;;;;;;4991109;28;20050;-74
2023/11/19 02:11:09;;;;;;;13.20;6.40;;;;;;;;;;4991156;28;20034;-75
2023/11/19 02:13:37;;;;;;;13.80;6.27;;;;;;;;;;5008588;28;20033;-75
2023/11/19 02:16:03;;;;;;;12.30;6.17;;;;;;;;;;5008765;28;20040;-75
2023/11/19 02:18:29;;;;;;;11.67;5.80;;;;;;;;;;5010240;28;20797;-76
2023/11/19 02:20:56;;;;;;;12.50;6.70;;;;;;;;;;5009075;28;20026;-75
2023/11/19 02:23:22;;;;;;;15.90;7.57;;;;;;;;;;5025396;28;20076;-74
2023/11/19 02:26:08;;;;;;;9.47;5.97;;;;;;;;;;5004671;28;20084;-74
2023/11/19 02:28:36;;;;;;;13.07;5.97;;;;;;;;;;4990036;28;20165;-74
2023/11/19 02:31:04;;;;;;;9.80;5.97;;;;;;;;;;4991389;28;20034;-74
2023/11/19 02:33:30;;;;;;;10.83;6.70;;;;;;;;;;4992713;28;20443;-73
2023/11/19 02:35:56;;;;;;;10.67;6.67;;;;;;;;;;4992352;28;20077;-75
2023/11/19 02:38:21;;;;;;;13.07;6.27;;;;;;;;;;5007737;28;20418;-69
2023/11/19 02:40:48;;;;;;;12.67;6.80;;;;;;;;;;5004816;28;20072;-74
2023/11/19 02:43:14;;;;;;;15.10;8.33;;;;;;;;;;5013127;28;20586;-73
2023/11/19 02:45:40;;;;;;;11.90;7.43;;;;;;;;;;5026656;28;20116;-74
2023/11/19 02:48:06;;;;;;;14.60;7.60;;;;;;;;;;5009468;28;20482;-73
2023/11/19 02:50:32;;;;;;;15.97;7.80;;;;;;;;;;5009512;28;20025;-73
2023/11/19 02:52:57;;;;;;;19.17;8.67;;;;;;;;;;5008355;28;20026;-74
2023/11/19 02:55:23;;;;;;;12.60;7.60;;;;;;;;;;5008579;28;20030;-73
2023/11/19 02:57:50;;;;;;;14.30;7.70;;;;;;;;;;5010224;28;20034;-73
2023/11/19 03:00:17;;;;;;;14.57;7.67;;;;;;;;;;5008343;28;20022;-74
2023/11/19 03:02:47;;;;;;;14.17;7.53;;;;;;;;;;4990007;28;20022;-75
2023/11/19 03:05:14;;;;;;;12.43;8.07;;;;;;;;;;4990489;28;20018;-75
2023/11/19 03:07:43;;;;;;;14.30;7.57;;;;;;;;;;4988477;28;20498;-73
2023/11/19 03:10:13;;;;;;;13.17;7.93;;;;;;;;;;5008640;28;20489;-75
2023/11/19 03:12:43;;;;;;;13.07;7.73;;;;;;;;;;5008118;28;20319;-74
2023/11/19 03:15:09;;;;;;;13.37;7.90;;;;;;;;;;5008134;28;20034;-76
2023/11/19 03:17:38;;;;;;;13.10;7.93;;;;;;;;;;5009425;28;20573;-75
2023/11/19 03:20:06;;;;;;;19.60;8.53;;;;;;;;;;5008035;28;20032;-73
2023/11/19 03:22:33;;;;;;;16.30;8.00;;;;;;;;;;5007034;28;20341;-72
2023/11/19 03:24:59;;;;;;;13.33;7.53;;;;;;;;;;5009165;28;20425;-73
2023/11/19 03:27:25;;;;;;;14.73;7.43;;;;;;;;;;5007663;28;20026;-72
2023/11/19 03:29:51;;;;;;;10.67;6.87;;;;;;;;;;5009493;28;20096;-73
2023/11/19 03:32:16;;;;;;;13.07;6.93;;;;;;;;;;5009341;28;20148;-74
2023/11/19 03:34:41;;;;;;;10.33;6.47;;;;;;;;;;5007660;28;20069;-73
2023/11/19 03:37:07;;;;;;;12.93;6.80;;;;;;;;;;4999773;28;20030;-75
2023/11/19 03:39:32;;;;;;;11.03;6.17;;;;;;;;;;4989382;28;20034;-74
2023/11/19 03:41:58;;;;;;;11.93;6.77;;;;;;;;;;5004796;28;20065;-74
2023/11/19 03:44:26;;;;;;;9.73;6.20;;;;;;;;;;4989893;28;20072;-70
2023/11/19 03:46:52;;;;;;;11.07;6.63;;;;;;;;;;5009460;28;20564;-75
2023/11/19 03:49:18;;;;;;;10.60;6.40;;;;;;;;;;4992113;28;20026;-73
2023/11/19 03:51:43;;;;;;;12.13;6.53;;;;;;;;;;5002260;28;20026;-72
2023/11/19 03:54:09;;;;;;;11.50;5.80;;;;;;;;;;4993436;28;20083;-75
2023/11/19 03:56:35;;;;;;;10.87;6.80;;;;;;;;;;4991878;28;20113;-74
2023/11/19 03:59:02;;;;;;;8.23;6.17;;;;;;;;;;4993423;28;20026;-73
2023/11/19 04:01:27;;;;;;;12.57;6.33;;;;;;;;;;5002150;28;20022;-74
2023/11/19 04:03:53;;;;;;;8.53;6.20;;;;;;;;;;5012203;28;20025;-73
2023/11/19 04:06:18;;;;;;;8.83;6.30;;;;;;;;;;5010928;28;20058;-75
2023/11/19 04:08:44;;;;;;;12.53;6.77;;;;;;;;;;5012770;28;20046;-74
2023/11/19 04:11:11;;;;;;;11.53;7.13;;;;;;;;;;5011979;28;20486;-74
2023/11/19 04:13:37;;;;;;;11.03;6.60;;;;;;;;;;5011065;28;20100;-75
2023/11/19 04:16:02;;;;;;;10.07;6.83;;;;;;;;;;5012437;28;20033;-76
2023/11/19 04:18:28;;;;;;;12.63;6.60;;;;;;;;;;5010749;28;20084;-74
2023/11/19 04:20:53;;;;;;;9.50;5.90;;;;;;;;;;4991415;28;20258;-73
2023/11/19 04:23:19;;;;;;;9.37;6.60;;;;;;;;;;4991259;28;20029;-73
2023/11/19 04:25:45;;;;;;;11.00;6.33;;;;;;;;;;4992441;28;20026;-74
2023/11/19 04:28:10;;;;;;;11.63;5.27;;;;;;;;;;4991511;28;20029;-74
2023/11/19 04:30:37;;;;;;;8.33;5.67;;;;;;;;;;4991065;28;20557;-73
2023/11/19 04:33:03;;;;;;;10.37;6.47;;;;;;;;;;4993559;28;20063;-74
2023/11/19 04:35:28;;;;;;;10.80;6.27;;;;;;;;;;5010412;28;20398;-74
2023/11/19 04:37:57;;;;;;;10.67;5.57;;;;;;;;;;5010809;28;20409;-74
2023/11/19 04:40:23;;;;;;;9.90;5.47;;;;;;;;;;5010746;28;20049;-75
2023/11/19 04:42:48;;;;;;;9.07;6.27;;;;;;;;;;5012087;28;20517;-74
2023/11/19 04:45:16;;;;;;;9.07;5.53;;;;;;;;;;5012360;28;20564;-73
2023/11/19 04:47:42;;;;;;;13.20;6.77;;;;;;;;;;5003207;28;20049;-74
2023/11/19 04:50:10;;;;;;;10.50;6.50;;;;;;;;;;4992568;28;20505;-73
2023/11/19 04:52:40;;;;;;;8.20;5.40;;;;;;;;;;4992324;28;20027;-72
2023/11/19 04:55:06;;;;;;;13.03;6.33;;;;;;;;;;4992287;28;20049;-74
2023/11/19 04:57:32;;;;;;;12.63;6.33;;;;;;;;;;4991428;28;20026;-72
2023/11/19 04:59:58;;;;;;;10.20;6.13;;;;;;;;;;4992557;28;20482;-73
2023/11/19 05:02:24;;;;;;;10.20;6.03;;;;;;;;;;5024196;28;20427;-74
2023/11/19 05:04:49;;;;;;;11.20;6.23;;;;;;;;;;5010474;28;20125;-73
2023/11/19 05:07:15;;;;;;;10.30;5.90;;;;;;;;;;5010506;28;20073;-72
2023/11/19 05:09:41;;;;;;;11.00;6.13;;;;;;;;;;5026996;28;20140;-74
2023/11/19 05:12:11;;;;;;;10.43;5.87;;;;;;;;;;5010823;28;20176;-75
2023/11/19 05:14:38;;;;;;;7.97;5.23;;;;;;;;;;5010165;28;20123;-74
2023/11/19 05:17:04;;;;;;;9.57;5.87;;;;;;;;;;4995878;28;20077;-73
2023/11/19 05:19:30;;;;;;;8.93;5.97;;;;;;;;;;4991783;28;20074;-74
2023/11/19 05:21:55;;;;;;;7.57;5.10;;;;;;;;;;4990056;28;20412;-73
2023/11/19 05:24:21;;;;;;;10.03;6.17;;;;;;;;;;4991500;28;20030;-72
2023/11/19 05:26:46;;;;;;;9.97;6.30;;;;;;;;;;4991491;28;20080;-74
2023/11/19 05:29:13;;;;;;;10.73;5.83;;;;;;;;;;5006660;28;20121;-75
2023/11/19 05:31:38;;;;;;;12.77;5.73;;;;;;;;;;5008386;28;20466;-72
2023/11/19 05:34:04;;;;;;;9.47;5.83;;;;;;;;;;5009494;28;20037;-73
2023/11/19 05:36:29;;;;;;;10.70;6.33;;;;;;;;;;5010655;28;20402;-75
2023/11/19 05:38:55;;;;;;;8.30;5.80;;;;;;;;;;5009081;28;20383;-74
2023/11/19 05:41:21;;;;;;;10.33;5.17;;;;;;;;;;5009392;28;20734;-74
2023/11/19 05:43:46;;;;;;;9.00;5.40;;;;;;;;;;5010309;28;20056;-74
2023/11/19 05:46:13;;;;;;;10.03;5.60;;;;;;;;;;4992684;28;20074;-73
2023/11/19 05:48:38;;;;;;;9.70;5.00;;;;;;;;;;4990610;28;20026;-73
2023/11/19 05:51:05;;;;;;;7.93;5.47;;;;;;;;;;4990420;28;20394;-74
2023/11/19 05:53:31;;;;;;;8.27;5.33;;;;;;;;;;4991418;28;20033;-74
2023/11/19 05:55:57;;;;;;;10.20;5.97;;;;;;;;;;4990683;28;20371;-73
2023/11/19 05:58:25;;;;;;;9.67;6.23;;;;;;;;;;4997264;28;20033;-73
2023/11/19 06:00:51;;;;;;;6.87;5.20;;;;;;;;;;4992018;28;20479;-74
2023/11/19 06:03:17;;;;;;;9.00;5.80;;;;;;;;;;4994858;28;20100;-73
2023/11/19 06:05:46;;;;;;;9.13;5.00;;;;;;;;;;5005191;28;20065;-73
2023/11/19 06:08:12;;;;;;;9.03;5.33;;;;;;;;;;5007606;28;20095;-73
2023/11/19 06:10:43;;;;;;;8.50;5.07;;;;;;;;;;4999076;28;20129;-74
2023/11/19 06:13:11;;;;;;;10.60;5.50;;;;;;;;;;5009068;28;20623;-72
2023/11/19 06:15:36;;;;;;;10.87;5.70;;;;;;;;;;4990443;28;20026;-73
2023/11/19 06:18:03;;;;;;;7.53;4.33;;;;;;;;;;4989605;28;20426;-73
2023/11/19 06:20:33;;;;;;;7.70;4.70;;;;;;;;;;5005918;28;20026;-75
2023/11/19 06:22:59;;;;;;;7.30;4.07;;;;;;;;;;4990253;28;20030;-75
2023/11/19 06:25:24;;;;;;;7.50;3.83;;;;;;;;;;4989257;28;20034;-74
2023/11/19 06:27:51;;;;;;;10.17;5.40;;;;;;;;;;5001338;28;20041;-76
2023/11/19 06:30:16;;;;;;;6.70;5.17;;;;;;;;;;5010183;28;20041;-75
2023/11/19 06:32:42;;;;;;;8.20;4.63;;;;;;;;;;5009754;28;20034;-73
2023/11/19 06:35:09;;;;;;;7.10;4.63;;;;;;;;;;5008137;28;20038;-74
2023/11/19 06:37:35;;;;;;;8.67;4.97;;;;;;;;;;5008563;28;20038;-75
2023/11/19 06:40:01;;;;;;;9.60;4.43;;;;;;;;;;5008447;28;20033;-73
2023/11/19 06:42:26;;;;;;;7.17;4.57;;;;;;;;;;5003416;28;20029;-76
2023/11/19 06:44:52;;;;;;;7.87;4.50;;;;;;;;;;5008609;28;20030;-74
2023/11/19 06:47:17;;;;;;;7.00;4.47;;;;;;;;;;5010428;28;20403;-72
2023/11/19 06:49:46;;;;;;;7.37;4.70;;;;;;;;;;5010227;28;20088;-74
2023/11/19 06:52:12;;;;;;;5.77;4.10;;;;;;;;;;5010142;28;20394;-74
2023/11/19 06:54:40;;;;;;;6.67;4.33;;;;;;;;;;5008125;28;20277;-74
2023/11/19 06:57:06;;;;;;;8.27;4.43;;;;;;;;;;4992638;28;20112;-74
2023/11/19 06:59:31;;;;;;;6.43;4.50;;;;;;;;;;4989569;28;20106;-75
2023/11/19 07:01:59;;;;;;;7.80;4.43;;;;;;;;;;5003888;28;20088;-74
2023/11/19 07:04:28;;;;;;;5.30;3.97;;;;;;;;;;5012152;28;20018;-75
2023/11/19 07:06:53;;;;;;;7.63;4.13;;;;;;;;;;5017333;28;20033;-75
2023/11/19 07:09:21;;;;;;;8.60;4.53;;;;;;;;;;5011148;28;20022;-74
2023/11/19 07:11:47;;;;;;;6.73;4.87;;;;;;;;;;4997162;28;20609;-73
2023/11/19 07:14:16;;;;;;;9.13;4.73;;;;;;;;;;4997308;28;20359;-73
2023/11/19 07:16:43;;;;;;;8.43;5.20;;;;;;;;;;4997258;28;20125;-74
2023/11/19 07:19:12;;;;;;;6.70;4.43;;;;;;;;;;4996664;28;20068;-74
2023/11/19 07:21:43;;;;;;;7.00;4.33;;;;;;;;;;4997541;28;20049;-70
2023/11/19 07:24:16;;;;;;;5.40;3.83;;;;;;;;;;4999200;28;20057;-75
2023/11/19 07:26:44;;;;;;;6.20;4.40;;;;;;;;;;4996618;28;20120;-75
2023/11/19 07:29:12;;;;;;;7.27;4.50;;;;;;;;;;4997603;28;20026;-74
2023/11/19 07:31:39;;;;;;;7.27;4.13;;;;;;;;;;4998071;28;20038;-74
2023/11/19 07:34:06;;;;;;;5.53;3.83;;;;;;;;;;4998954;28;20029;-74
2023/11/19 07:36:32;;;;;;;5.47;4.10;;;;;;;;;;4980851;28;20027;-74
2023/11/19 07:38:59;;;;;;;7.97;4.63;;;;;;;;;;5014292;28;20030;-75
2023/11/19 07:41:31;;;;;;;3.97;3.13;;;;;;;;;;5019232;28;20025;-74
2023/11/19 07:44:02;;;;;;;5.03;3.80;;;;;;;;;;5019120;28;20367;-75
2023/11/19 07:46:30;;;;;;;6.70;3.77;;;;;;;;;;5018475;28;20410;-74
2023/11/19 07:48:56;;;;;;;5.63;4.03;;;;;;;;;;5017182;28;20048;-76
2023/11/19 07:51:24;;;;;;;9.57;3.80;;;;;;;;;;5016585;28;20034;-75
2023/11/19 07:53:50;;;;;;;7.10;3.63;;;;;;;;;;5016694;28;20060;-75
2023/11/19 07:56:17;;;;;;;8.23;4.10;;;;;;;;;;5016307;28;20121;-75
2023/11/19 07:58:55;;;;;;;7.20;3.63;;;;;;;;;;5017407;28;20029;-73
2023/11/19 08:01:23;;;;;;;8.07;4.57;;;;;;;;;;5019315;28;20037;-74
2023/11/19 08:04:06;;;;;;;5.63;4.37;;;;;;;;;;5019967;28;20044;-73
2023/11/19 08:06:51;;;;;;;7.67;4.70;;;;;;;;;;5011606;28;20088;-74
2023/11/19 08:09:18;;;;;;;6.23;4.47;;;;;;;;;;5004790;28;20038;-76
2023/11/19 08:12:16;;;;;;;5.93;3.83;;;;;;;;;;5015883;28;20040;-76
2023/11/19 08:14:47;;;;;;;7.40;3.87;;;;;;;;;;5016236;28;20065;-74
2023/11/19 08:17:34;;;;;;;7.68;4.57;;;;;;;;;;5016185;28;20093;-74
2023/11/19 08:20:13;;;;;;;7.00;4.43;;;;;;;;;;5008853;28;20034;-75
2023/11/19 08:22:44;;;;;;;19.20;12.33;;;;;;;;;;4997811;28;20042;-77
2023/11/19 08:25:19;;;;;;;10.30;5.40;;;;;;;;;;4996202;28;20080;-72
2023/11/19 08:27:45;;;;;;;7.67;5.20;;;;;;;;;;4997485;28;20019;-74
2023/11/19 08:30:18;;;;;;;8.87;4.77;;;;;;;;;;4997105;28;20042;-76
2023/11/19 08:33:06;;;;;;;;;;;;;;;;;;;;;
2023/11/19 08:35:39;;;;;;;8.13;4.67;;;;;;;;;;5000616;28;20562;-77
2023/11/19 08:38:24;;;;;;;9.67;5.93;;;;;;;;;;4983297;28;20027;-75
2023/11/19 08:40:53;;;;;;;6.60;4.90;;;;;;;;;;5000364;28;20431;-76
2023/11/19 08:43:25;;;;;;;6.03;4.37;;;;;;;;;;4999295;28;20108;-76
2023/11/19 08:45:51;;;;;;;6.57;4.50;;;;;;;;;;4999803;28;20125;-76
2023/11/19 08:48:23;;;;;;;7.60;5.17;;;;;;;;;;5001275;28;20058;-75
2023/11/19 08:50:53;;;;;;;10.60;4.53;;;;;;;;;;5000670;28;20054;-75
2023/11/19 08:53:27;;;;;;;8.53;4.80;;;;;;;;;;5001675;28;20031;-74
2023/11/19 08:55:53;;;;;;;6.90;4.93;;;;;;;;;;4999510;28;20517;-75
2023/11/19 08:58:20;;;;;;;8.80;5.33;;;;;;;;;;5000319;28;20042;-73
2023/11/19 09:00:54;;;;;;;7.47;5.13;;;;;;;;;;5005474;28;20022;-75
2023/11/19 09:03:26;;;;;;;6.00;4.60;;;;;;;;;;5009094;28;20033;-74
2023/11/19 09:05:57;;;;;;;;;;;;;;;;;;5005157;28;20037;-74
2023/11/19 09:08:26;;;;;;;7.87;5.00;;;;;;;;;;5001576;28;19917;-76
2023/11/19 09:11:16;;;;;;;7.20;4.47;;;;;;;;;;5001507;28;20034;-75
2023/11/19 09:13:45;;;;;;;6.23;4.13;;;;;;;;;;5000058;28;20169;-76
2023/11/19 09:16:19;;;;;;;7.07;4.63;;;;;;;;;;5005708;28;20045;-76
2023/11/19 09:18:50;;;;;;;9.13;5.20;;;;;;;;;;5021376;28;20022;-73
2023/11/19 09:21:24;;;;;;;7.77;4.90;;;;;;;;;;5022060;28;20018;-77
2023/11/19 09:23:51;;;;;;;9.13;8.20;;;;;;;;;;5019850;28;20033;-76
2023/11/19 09:26:19;;;;;;;8.03;4.90;;;;;;;;;;5020035;28;20026;-76
2023/11/19 09:28:50;;;;;;;10.77;6.93;;;;;;;;;;5017781;28;20060;-72
2023/11/19 09:31:21;;;;;;;9.48;5.75;;;;;;;;;;5004368;28;20109;-73
2023/11/19 09:33:59;;;;;;;8.43;5.72;;;;;;;;;;5000861;28;20038;-75
2023/11/19 09:36:24;;;;;;;10.47;6.13;;;;;;;;;;4999294;28;20062;-76
2023/11/19 09:38:52;;;;;;;6.65;5.00;;;;;;;;;;5015928;28;20418;-74
2023/11/19 09:41:23;;;;;;;10.10;6.37;;;;;;;;;;5000346;28;20030;-76
2023/11/19 09:43:57;;;;;;;8.60;5.05;;;;;;;;;;5000477;28;20125;-77
2023/11/19 09:46:28;;;;;;;8.13;5.15;;;;;;;;;;5020672;28;20033;-72
2023/11/19 09:49:13;;;;;;;13.05;6.43;;;;;;;;;;5018677;28;20506;-75
2023/11/19 09:51:44;;;;;;;8.25;5.80;;;;;;;;;;5018004;28;20064;-75
2023/11/19 09:54:14;;;;;;;6.05;4.70;;;;;;;;;;5020104;28;20018;-75
2023/11/19 09:56:44;;;;;;;9.52;6.05;;;;;;;;;;5032206;28;20037;-75
2023/11/19 09:59:14;;;;;;;9.18;5.55;;;;;;;;;;5015341;28;20084;-74
2023/11/19 10:01:45;;;;;;;7.40;4.97;;;;;;;;;;5001947;28;20030;-75
2023/11/19 10:04:17;;;;;;;10.07;5.28;;;;;;;;;;4994774;28;20111;-75
2023/11/19 10:06:49;;;;;;;9.13;6.10;;;;;;;;;;4996129;28;20038;-73
2023/11/19 10:09:19;;;;;;;7.53;5.63;;;;;;;;;;5014320;28;20054;-75
2023/11/19 10:11:45;;;;;;;6.32;4.05;;;;;;;;;;4986243;28;20034;-74
2023/11/19 10:14:36;;;;;;;12.43;6.93;;;;;;;;;;5019759;28;20026;-76
2023/11/19 10:17:10;;;;;;;8.02;4.95;;;;;;;;;;4999895;28;20121;-78
2023/11/19 10:19:41;;;;;;;7.50;4.22;;;;;;;;;;4978414;28;20050;-75
2023/11/19 10:22:09;;;;;;;6.18;4.38;;;;;;;;;;4994493;28;20065;-75
2023/11/19 10:24:48;;;;;;;6.15;3.90;;;;;;;;;;4993016;28;20022;-75
2023/11/19 10:27:27;;;;;;;5.53;3.50;;;;;;;;;;5001754;28;20029;-72
2023/11/19 10:30:05;;;;;;;6.53;3.67;;;;;;;;;;5017841;28;20026;-75
2023/11/19 10:32:34;;;;;;;5.60;3.05;;;;;;;;;;5016868;28;20025;-76
2023/11/19 10:35:07;;;;;;;8.27;5.30;;;;;;;;;;5021458;28;20041;-75
2023/11/19 10:37:52;;;;;;;30.33;12.90;;;;;;;;;;5020890;28;20065;-74
2023/11/19 10:40:21;;;;;;;2.70;2.35;;;;;;;;;;5008110;28;20038;-76
2023/11/19 10:43:17;;;;;;;5.28;2.50;;;;;;;;;;4999438;28;20045;-76
2023/11/19 10:46:08;;;;;;;3.42;2.45;;;;;;;;;;4996935;28;20038;-76
2023/11/19 10:48:38;;;;;;;5.38;2.85;;;;;;;;;;4999820;28;20366;-74
2023/11/19 10:51:23;;;;;;;4.35;2.95;;;;;;;;;;5012531;28;20092;-76
2023/11/19 10:53:53;;;;;;;4.78;3.30;;;;;;;;;;4998332;28;20165;-77
2023/11/19 10:56:37;;;;;;;6.82;4.50;;;;;;;;;;5016032;28;20137;-76
2023/11/19 10:59:17;;;;;;;4.50;2.83;;;;;;;;;;5017253;28;20075;-75
2023/11/19 11:02:13;;;;;;;2.45;1.58;;;;;;;;;;5018134;28;20169;-74
2023/11/19 11:04:46;;;;;;;2.03;1.38;;;;;;;;;;5001601;28;20057;-74
2023/11/19 11:07:27;;;;;;;7.72;1.23;;;;;;;;;;4993238;28;20034;-73
2023/11/19 11:09:56;;;;;;;0.98;0.77;;;;;;;;;;4992854;28;20045;-75
2023/11/19 11:12:41;;;;;;;1.48;0.80;;;;;;;;;;4975833;28;20395;-75
2023/11/19 11:15:17;;;;;;;0.60;0.60;;;;;;;;;;4992474;28;20153;-75
2023/11/19 11:17:47;;;;;;;1.52;0.70;;;;;;;;;;5010829;28;20084;-75
2023/11/19 11:20:16;;;;;;;1.83;0.70;;;;;;;;;;5013350;28;20033;-74
2023/11/19 11:23:03;;;;;;;2.42;1.70;;;;;;;;;;5012096;28;20084;-77
2023/11/19 11:26:03;;;;;;;1.17;0.80;;;;;;;;;;5012267;28;20104;-75
2023/11/19 11:28:59;;;;;;;0.98;0.88;;;;;;;;;;4994603;28;20418;-76
2023/11/19 11:31:34;;;;;;;1.13;0.57;;;;;;;;;;4993682;28;20030;-74
2023/11/19 11:34:15;;;;;;;0.98;0.90;;;;;;;;;;4992114;28;20034;-76
2023/11/19 11:37:07;;;;;;;1.10;0.68;;;;;;;;;;4992697;28;20034;-77
2023/11/19 11:42:47;;;;;;;1.52;0.70;;;;;;;;;;4993790;28;20128;-75
2023/11/19 11:45:34;;;;;;;1.05;0.80;;;;;;;;;;4992467;28;20027;-75
2023/11/19 11:48:20;;;;;;;1.05;0.90;;;;;;;;;;4994844;28;20045;-76
2023/11/19 11:50:52;;;;;;;1.60;0.90;;;;;;;;;;5011986;28;20081;-75
2023/11/19 11:53:35;;;;;;;3.35;1.15;;;;;;;;;;4995855;28;20037;-74
2023/11/19 11:56:08;;;;;;;2.75;0.77;;;;;;;;;;4982818;28;20033;-75
2023/11/19 11:58:39;;;;;;;1.25;0.85;;;;;;;;;;5014639;28;20041;-77
2023/11/19 12:01:08;;;;;;;1.85;0.82;;;;;;;;;;5014906;28;20034;-76
2023/11/19 12:03:43;;;;;;;1.33;0.95;;;;;;;;;;5016137;28;20026;-76
2023/11/19 12:06:19;;;;;;;1.30;0.98;;;;;;;;;;5019694;28;20022;-76
2023/11/19 12:09:01;;;;;;;1.30;0.90;;;;;;;;;;5025651;28;20448;-74
2023/11/19 12:11:37;;;;;;;3.20;0.95;;;;;;;;;;5012031;28;20110;-75
2023/11/19 12:14:06;;;;;;;0.82;0.63;;;;;;;;;;5002925;28;20038;-75
2023/11/19 12:16:37;;;;;;;1.52;0.77;;;;;;;;;;5014653;28;20401;-73
2023/11/19 12:19:31;;;;;;;1.48;0.70;;;;;;;;;;4999019;28;20471;-74
2023/11/19 12:22:11;;;;;;;3.00;1.13;;;;;;;;;;5014062;28;20034;-75
2023/11/19 12:24:46;;;;;;;1.80;0.90;;;;;;;;;;5001737;28;20029;-76
2023/11/19 12:27:22;;;;;;;2.55;0.80;;;;;;;;;;5014616;28;20037;-74
2023/11/19 12:29:54;;;;;;;1.17;0.70;;;;;;;;;;5015850;28;20038;-74
2023/11/19 12:32:50;;;;;;;1.80;1.10;;;;;;;;;;5017731;28;20117;-76
2023/11/19 12:35:19;;;;;;;0.88;0.80;;;;;;;;;;5015814;28;20060;-74
2023/11/19 12:38:06;;;;;;;0.85;0.55;;;;;;;;;;5015495;28;20029;-73
2023/11/19 12:40:49;;;;;;;2.03;0.77;;;;;;;;;;5015006;28;20064;-75
2023/11/19 12:43:27;;;;;;;0.93;0.80;;;;;;;;;;5016765;28;20025;-77
2023/11/19 12:45:55;;;;;;;1.10;0.77;;;;;;;;;;5015466;28;20026;-75
2023/11/19 12:48:26;;;;;;;0.95;0.90;;;;;;;;;;5016219;28;20113;-78
2023/11/19 12:51:07;;;;;;;1.80;1.13;;;;;;;;;;5016620;28;20022;-73
2023/11/19 12:53:57;;;;;;;1.13;1.00;;;;;;;;;;5014946;28;20049;-75
2023/11/19 12:56:27;;;;;;;1.17;0.63;;;;;;;;;;5011953;28;20034;-74
2023/11/19 12:59:10;;;;;;;3.22;0.73;;;;;;;;;;5016285;28;20045;-75
2023/11/19 13:01:38;;;;;;;4.43;0.80;;;;;;;;;;5015930;28;20163;-77
2023/11/19 13:04:35;;;;;;;1.20;1.10;;;;;;;;;;5015067;28;20409;-76
2023/11/19 13:07:03;;;;;;;3.38;0.95;;;;;;;;;;5028647;28;20044;-75
2023/11/19 13:09:37;;;;;;;2.22;1.23;;;;;;;;;;5015697;28;20073;-73
2023/11/19 13:12:15;;;;;;;1.35;1.00;;;;;;;;;;5017145;28;20406;-78
2023/11/19 13:14:51;;;;;;;4.25;1.10;;;;;;;;;;5014701;28;20470;-74
2023/11/19 13:17:27;;;;;;;2.75;1.50;;;;;;;;;;5015598;28;20386;-75
2023/11/19 13:20:01;;;;;;;1.77;1.10;;;;;;;;;;5014527;28;20022;-75
2023/11/19 13:22:37;;;;;;;1.23;1.02;;;;;;;;;;5015584;28;20419;-76
2023/11/19 13:25:05;;;;;;;1.90;0.90;;;;;;;;;;5030351;28;20038;-76
2023/11/19 13:27:33;;;;;;;1.77;1.15;;;;;;;;;;5014640;28;20041;-75
2023/11/19 13:30:11;;;;;;;1.40;0.77;;;;;;;;;;5014635;28;20025;-74
2023/11/19 13:33:03;;;;;;;3.72;1.13;;;;;;;;;;5016428;28;20064;-74
2023/11/19 13:35:48;;;;;;;1.55;1.00;;;;;;;;;;5017177;28;20080;-74
2023/11/19 13:38:44;;;;;;;1.60;1.15;;;;;;;;;;5018826;28;20061;-75
2023/11/19 13:41:16;;;;;;;1.80;1.42;;;;;;;;;;5019562;28;20386;-76
2023/11/19 13:43:55;;;;;;;1.73;0.98;;;;;;;;;;5010100;28;20053;-76
2023/11/19 13:46:28;;;;;;;5.63;1.33;;;;;;;;;;4997708;28;20042;-76
2023/11/19 13:48:54;;;;;;;2.65;1.38;;;;;;;;;;4997680;28;20113;-75
2023/11/19 13:51:20;;;;;;;2.05;1.02;;;;;;;;;;4996581;28;20547;-77
2023/11/19 13:53:50;;;;;;;3.88;1.10;;;;;;;;;;4995960;28;20053;-77
2023/11/19 13:56:18;;;;;;;2.55;1.20;;;;;;;;;;4996700;28;20080;-76
2023/11/19 13:58:45;;;;;;;2.08;1.00;;;;;;;;;;4997528;28;20072;-76
2023/11/19 14:01:14;;;;;;;2.05;0.80;;;;;;;;;;4996225;28;20030;-76
2023/11/19 14:03:48;;;;;;;3.30;1.25;;;;;;;;;;4997346;28;20089;-77
2023/11/19 14:06:18;;;;;;;2.58;1.15;;;;;;;;;;4995553;28;20033;-75
2023/11/19 14:08:45;;;;;;;2.03;1.20;;;;;;;;;;4995884;28;20050;-77
2023/11/19 14:11:11;;;;;;;2.42;1.60;;;;;;;;;;4998182;28;20117;-77
2023/11/19 14:13:39;;;;;;;1.25;1.02;;;;;;;;;;5018751;28;20441;-77
2023/11/19 14:16:16;;;;;;;2.03;1.15;;;;;;;;;;5017265;28;20018;-76
2023/11/19 14:18:45;;;;;;;3.33;1.40;;;;;;;;;;5019246;28;20501;-73
2023/11/19 14:21:11;;;;;;;1.27;1.05;;;;;;;;;;5018072;28;20068;-78
2023/11/19 14:23:43;;;;;;;1.45;0.95;;;;;;;;;;5020206;28;20038;-75
2023/11/19 14:26:10;;;;;;;;;;;;;;;;;;5021231;28;20056;-76
2023/11/19 14:28:48;;;;;;;3.28;1.35;;;;;;;;;;5022719;28;19909;-77
2023/11/19 14:31:15;;;;;;;2.10;1.00;;;;;;;;;;5034203;28;20034;-77
2023/11/19 14:33:41;;;;;;;2.10;1.30;;;;;;;;;;5015188;28;20028;-76
2023/11/19 14:36:50;;;;;;;1.60;1.10;;;;;;;;;;5013191;28;20037;-76
2023/11/19 14:39:26;;;;;;;2.28;0.98;;;;;;;;;;5008506;28;20390;-76
2023/11/19 14:41:58;;;;;;;2.15;1.85;;;;;;;;;;4994251;28;20094;-74
2023/11/19 14:44:33;;;;;;;5.35;1.58;;;;;;;;;;5012358;28;20030;-76
2023/11/19 14:47:05;;;;;;;2.97;1.40;;;;;;;;;;5013553;28;20033;-75
2023/11/19 14:49:53;;;;;;;1.80;1.25;;;;;;;;;;5012552;28;20045;-75
2023/11/19 14:52:20;;;;;;;2.63;1.20;;;;;;;;;;5013273;28;20104;-76
2023/11/19 14:54:55;;;;;;;3.15;1.30;;;;;;;;;;5028937;28;20021;-75
2023/11/19 14:57:23;;;;;;;1.30;1.20;;;;;;;;;;5012189;28;20125;-75
2023/11/19 15:03:06;;;;;;;2.88;1.35;;;;;;;;;;5004842;28;20063;-75
2023/11/19 15:05:47;;;;;;;2.65;0.98;;;;;;;;;;5009199;28;21001;-75
2023/11/19 15:08:18;;;;;;;4.25;1.38;;;;;;;;;;4993759;28;20442;-75